Time;durP1;ratioP1;P1;durP2;ratioP2;P2;SDS_P1;SDS_P2;PMS_P1;PMS_P2;Temp;Humidity;BMP_temperature;BMP_pressure;BME280_temperature;BME280_humidity;BME280_pressure;Samples;Min_cycle;Max_cycle;Signal;HPM_P1;HPM_P2
2022/04/10 00:00:41;;;;;;;19.60;3.75;;;3.70;99.90;;;;;;5070250;28;20437;-70
2022/04/10 00:03:07;;;;;;;13.32;3.45;;;3.70;99.90;;;;;;5070371;28;20032;-70
2022/04/10 00:05:32;;;;;;;16.67;3.35;;;3.70;99.90;;;;;;5070458;28;20047;-70
2022/04/10 00:07:58;;;;;;;14.88;3.75;;;3.70;99.90;;;;;;5071545;28;20417;-70
2022/04/10 00:10:24;;;;;;;11.98;3.40;;;3.60;99.90;;;;;;5071333;28;20547;-69
2022/04/10 00:12:49;;;;;;;21.35;3.60;;;3.70;99.90;;;;;;5070592;28;20040;-70
2022/04/10 00:15:15;;;;;;;15.73;3.47;;;3.60;99.90;;;;;;5071774;28;20058;-70
2022/04/10 00:17:41;;;;;;;14.18;3.50;;;3.60;99.90;;;;;;5070357;28;20041;-70
2022/04/10 00:20:09;;;;;;;11.38;3.17;;;3.60;99.90;;;;;;5071274;28;20037;-70
2022/04/10 00:22:45;;;;;;;20.92;5.43;;;3.60;99.90;;;;;;5070261;28;20048;-70
2022/04/10 00:25:13;;;;;;;19.27;4.43;;;3.60;99.90;;;;;;5071672;28;20371;-70
2022/04/10 00:27:42;;;;;;;15.15;2.50;;;3.60;99.90;;;;;;5071491;28;20086;-70
2022/04/10 00:30:09;;;;;;;13.95;3.78;;;3.60;99.90;;;;;;5071228;28;20040;-70
2022/04/10 00:32:34;;;;;;;16.27;4.35;;;3.60;99.90;;;;;;5070432;28;20049;-70
2022/04/10 00:35:00;;;;;;;17.23;4.80;;;3.60;99.90;;;;;;5070275;28;20052;-70
2022/04/10 00:37:26;;;;;;;13.23;2.85;;;3.50;99.90;;;;;;5071615;28;20043;-70
2022/04/10 00:39:52;;;;;;;14.88;3.50;;;3.50;99.90;;;;;;5070281;28;20418;-70
2022/04/10 00:42:18;;;;;;;13.90;3.08;;;3.60;99.90;;;;;;5053236;28;20040;-70
2022/04/10 00:44:43;;;;;;;15.68;3.15;;;3.50;99.90;;;;;;5070030;28;20041;-70
2022/04/10 00:47:11;;;;;;;12.52;3.40;;;3.50;99.90;;;;;;5070112;28;20048;-69
2022/04/10 00:49:37;;;;;;;19.95;3.45;;;3.50;99.90;;;;;;5071196;28;20032;-70
2022/04/10 00:52:08;;;;;;;14.55;2.72;;;3.50;99.90;;;;;;5071169;28;20041;-70
2022/04/10 00:54:34;;;;;;;15.73;3.03;;;3.50;99.90;;;;;;5070068;28;20051;-70
2022/04/10 00:57:01;;;;;;;17.52;3.10;;;3.50;99.90;;;;;;5071204;28;20041;-69
2022/04/10 00:59:28;;;;;;;16.15;2.92;;;3.50;99.90;;;;;;5071194;28;20076;-69
2022/04/10 01:01:55;;;;;;;15.60;3.60;;;3.50;99.90;;;;;;5070847;28;20379;-70
2022/04/10 01:04:21;;;;;;;10.18;2.95;;;3.40;99.90;;;;;;5069691;28;20495;-70
2022/04/10 01:06:48;;;;;;;11.63;3.50;;;3.30;99.90;;;;;;5070175;28;20123;-69
2022/04/10 01:09:15;;;;;;;13.32;3.72;;;3.30;99.90;;;;;;5071342;28;20033;-70
2022/04/10 01:11:40;;;;;;;17.02;4.45;;;3.20;99.90;;;;;;5070550;28;20048;-69
2022/04/10 01:14:08;;;;;;;16.40;4.18;;;3.20;99.90;;;;;;5073728;28;20044;-70
2022/04/10 01:16:34;;;;;;;18.00;4.53;;;3.30;99.90;;;;;;5074595;28;20411;-70
2022/04/10 01:19:03;;;;;;;13.05;2.92;;;3.30;99.90;;;;;;5073364;28;20036;-70
2022/04/10 01:21:32;;;;;;;13.05;3.13;;;3.30;99.90;;;;;;5074158;28;20239;-69
2022/04/10 01:23:58;;;;;;;17.77;4.00;;;3.30;99.90;;;;;;5073435;28;20379;-70
2022/04/10 01:26:26;;;;;;;20.52;3.83;;;3.30;99.90;;;;;;5074430;28;20090;-70
2022/04/10 01:29:05;;;;;;;9.95;3.03;;;3.30;99.90;;;;;;5073189;28;20032;-70
2022/04/10 01:31:32;;;;;;;12.65;3.55;;;3.20;99.90;;;;;;5074004;28;20028;-70
2022/04/10 01:34:01;;;;;;;12.45;3.10;;;3.10;99.90;;;;;;5074384;28;20094;-70
2022/04/10 01:36:29;;;;;;;15.57;3.05;;;3.10;99.90;;;;;;5073054;28;20098;-69
2022/04/10 01:38:57;;;;;;;16.10;3.58;;;3.10;99.90;;;;;;5074285;28;20086;-70
2022/04/10 01:41:25;;;;;;;9.23;3.35;;;3.10;99.90;;;;;;5055897;28;20493;-70
2022/04/10 01:43:52;;;;;;;13.65;2.80;;;3.10;99.90;;;;;;5073088;28;20048;-69
2022/04/10 01:46:18;;;;;;;13.02;3.85;;;3.10;99.90;;;;;;5074321;28;20044;-70
2022/04/10 01:48:43;;;;;;;24.45;3.78;;;3.10;99.90;;;;;;5074096;28;20032;-70
2022/04/10 01:51:09;;;;;;;13.70;2.78;;;3.10;99.90;;;;;;5072485;28;20131;-70
2022/04/10 01:53:35;;;;;;;11.35;3.30;;;3.10;99.90;;;;;;5072754;28;20043;-70
2022/04/10 01:56:02;;;;;;;11.13;2.97;;;3.10;99.90;;;;;;5072628;28;20041;-70
2022/04/10 01:58:29;;;;;;;15.10;3.40;;;3.10;99.90;;;;;;5072614;28;20112;-69
2022/04/10 02:00:54;;;;;;;17.80;4.50;;;3.10;99.90;;;;;;5073524;28;20045;-70
2022/04/10 02:03:20;;;;;;;15.02;3.55;;;3.10;99.90;;;;;;5072696;28;20055;-70
2022/04/10 02:05:45;;;;;;;10.43;3.47;;;3.10;99.90;;;;;;5072489;28;20049;-70
2022/04/10 02:08:13;;;;;;;13.40;4.00;;;3.10;99.90;;;;;;5072665;28;20123;-70
2022/04/10 02:10:38;;;;;;;14.75;2.83;;;3.10;99.90;;;;;;5073208;28;20544;-69
2022/04/10 02:13:04;;;;;;;13.02;2.97;;;3.10;99.90;;;;;;5072313;28;20032;-69
2022/04/10 02:15:31;;;;;;;10.82;3.40;;;3.10;99.90;;;;;;5072366;28;20041;-69
2022/04/10 02:17:56;;;;;;;16.98;3.42;;;3.10;99.90;;;;;;5073643;28;20429;-70
2022/04/10 02:20:22;;;;;;;16.23;3.28;;;3.20;99.90;;;;;;5071842;28;20040;-70
2022/04/10 02:22:47;;;;;;;11.60;2.97;;;3.20;99.90;;;;;;5055743;28;20040;-70
2022/04/10 02:25:13;;;;;;;15.15;3.53;;;3.20;99.90;;;;;;5073220;28;20049;-70
2022/04/10 02:27:39;;;;;;;13.20;3.33;;;3.20;99.90;;;;;;5072003;28;20036;-70
2022/04/10 02:30:06;;;;;;;11.00;3.28;;;3.20;99.90;;;;;;5073106;28;20456;-70
2022/04/10 02:32:31;;;;;;;12.85;4.00;;;3.20;99.90;;;;;;5073249;28;20044;-70
2022/04/10 02:34:57;;;;;;;14.35;3.53;;;3.20;99.90;;;;;;5073253;28;20097;-70
2022/04/10 02:37:22;;;;;;;14.35;4.55;;;3.20;99.90;;;;;;5071895;28;20098;-69
2022/04/10 02:39:48;;;;;;;14.95;3.47;;;3.10;99.90;;;;;;5071625;28;20529;-69
2022/04/10 02:42:13;;;;;;;15.07;4.25;;;3.10;99.90;;;;;;5072751;28;20048;-70
2022/04/10 02:44:39;;;;;;;16.40;3.50;;;3.10;99.90;;;;;;5071764;28;20047;-70
2022/04/10 02:47:05;;;;;;;15.88;2.95;;;3.10;99.90;;;;;;5071957;28;20093;-70
2022/04/10 02:49:31;;;;;;;11.63;3.03;;;3.00;99.90;;;;;;5071620;28;20041;-70
2022/04/10 02:51:56;;;;;;;12.52;3.40;;;3.00;99.90;;;;;;5072601;28;20458;-70
2022/04/10 02:54:22;;;;;;;10.65;2.60;;;3.00;99.90;;;;;;5071458;28;20051;-70
2022/04/10 02:56:47;;;;;;;10.88;3.10;;;2.90;99.90;;;;;;5072714;28;20043;-70
2022/04/10 02:59:13;;;;;;;10.88;3.20;;;2.90;99.90;;;;;;5072907;28;20501;-70
2022/04/10 03:01:38;;;;;;;11.80;3.72;;;2.90;99.90;;;;;;5072444;28;20051;-70
2022/04/10 03:04:04;;;;;;;16.20;3.58;;;3.00;99.90;;;;;;5072549;28;20037;-70
2022/04/10 03:06:29;;;;;;;11.73;2.80;;;3.10;99.90;;;;;;5071302;28;20044;-70
2022/04/10 03:08:55;;;;;;;13.00;3.00;;;3.10;99.90;;;;;;5072499;28;20528;-70
2022/04/10 03:11:20;;;;;;;15.90;3.70;;;3.20;99.90;;;;;;5072029;28;20043;-70
2022/04/10 03:13:46;;;;;;;13.43;2.38;;;3.20;99.90;;;;;;5071491;28;20163;-69
2022/04/10 03:16:12;;;;;;;14.02;2.97;;;3.20;99.90;;;;;;5071130;28;20036;-69
2022/04/10 03:18:37;;;;;;;14.48;3.05;;;3.20;99.90;;;;;;5071378;28;20055;-70
2022/04/10 03:21:04;;;;;;;16.77;3.85;;;3.10;99.90;;;;;;5072020;28;20063;-70
2022/04/10 03:23:30;;;;;;;13.70;3.22;;;3.10;99.90;;;;;;5070962;28;20044;-70
2022/04/10 03:25:55;;;;;;;6.10;3.17;;;3.10;99.90;;;;;;5072075;28;20516;-70
2022/04/10 03:28:21;;;;;;;11.73;4.07;;;3.20;99.90;;;;;;5072407;28;20032;-70
2022/04/10 03:30:46;;;;;;;12.05;2.90;;;3.10;99.90;;;;;;5071960;28;20043;-70
2022/04/10 03:33:13;;;;;;;12.55;3.38;;;3.10;99.90;;;;;;5070863;28;20119;-70
2022/04/10 03:35:38;;;;;;;16.83;3.78;;;3.20;99.90;;;;;;5070697;28;20501;-70
2022/04/10 03:38:04;;;;;;;11.40;2.60;;;3.20;99.90;;;;;;5080951;28;20111;-70
2022/04/10 03:40:30;;;;;;;14.10;3.33;;;3.20;99.90;;;;;;5090467;28;20066;-70
2022/04/10 03:42:55;;;;;;;10.65;2.63;;;3.20;99.90;;;;;;5091141;28;20033;-70
2022/04/10 03:45:21;;;;;;;22.55;3.13;;;3.20;99.90;;;;;;5092260;28;20618;-70
2022/04/10 03:47:47;;;;;;;15.70;2.28;;;3.20;99.90;;;;;;5091945;28;20460;-70
2022/04/10 03:50:13;;;;;;;11.55;2.67;;;3.20;99.90;;;;;;5091742;28;20100;-70
2022/04/10 03:52:38;;;;;;;7.00;1.75;;;3.20;99.90;;;;;;5090787;28;20051;-70
2022/04/10 03:55:04;;;;;;;10.82;2.58;;;3.30;99.90;;;;;;5092008;28;20059;-70
2022/04/10 03:57:30;;;;;;;6.80;2.03;;;3.40;99.90;;;;;;5092046;28;20047;-70
2022/04/10 03:59:56;;;;;;;8.73;1.83;;;3.40;99.90;;;;;;5090421;28;20036;-70
2022/04/10 04:02:24;;;;;;;5.25;1.90;;;3.50;99.90;;;;;;5090708;28;20051;-70
2022/04/10 04:04:51;;;;;;;9.98;2.03;;;3.50;99.90;;;;;;5090547;28;20040;-70
2022/04/10 04:07:17;;;;;;;8.63;1.77;;;3.50;99.90;;;;;;5091885;28;20032;-70
2022/04/10 04:09:43;;;;;;;11.15;2.25;;;3.60;99.90;;;;;;5090528;28;20036;-70
2022/04/10 04:12:09;;;;;;;9.02;1.70;;;3.60;99.90;;;;;;5090448;28;20040;-70
2022/04/10 04:14:37;;;;;;;11.93;1.83;;;3.60;99.90;;;;;;5092040;28;20036;-71
2022/04/10 04:17:03;;;;;;;8.60;1.75;;;3.50;99.90;;;;;;5084188;28;20036;-70
2022/04/10 04:19:29;;;;;;;5.93;1.77;;;3.50;99.90;;;;;;5090482;28;20054;-70
2022/04/10 04:21:54;;;;;;;7.22;1.60;;;3.50;99.90;;;;;;5091377;28;20051;-70
2022/04/10 04:24:20;;;;;;;7.32;2.38;;;3.40;99.90;;;;;;5091640;28;20044;-70
2022/04/10 04:26:45;;;;;;;6.80;1.60;;;3.50;99.90;;;;;;5090651;28;20457;-70
2022/04/10 04:29:11;;;;;;;12.15;2.30;;;3.50;99.90;;;;;;5092014;28;20032;-70
2022/04/10 04:31:36;;;;;;;9.95;1.55;;;3.50;99.90;;;;;;5090199;28;20043;-70
2022/04/10 04:34:02;;;;;;;8.32;1.80;;;3.50;99.90;;;;;;5091764;28;20040;-70
2022/04/10 04:36:28;;;;;;;7.95;1.70;;;3.40;99.90;;;;;;5090768;28;20044;-70
2022/04/10 04:38:56;;;;;;;11.52;2.05;;;3.40;99.90;;;;;;5091713;28;20040;-70
2022/04/10 04:41:21;;;;;;;5.25;1.50;;;3.50;99.90;;;;;;5090233;28;20554;-70
2022/04/10 04:43:47;;;;;;;9.82;1.88;;;3.40;99.90;;;;;;5090560;28;20035;-70
2022/04/10 04:46:13;;;;;;;5.40;1.45;;;3.40;99.90;;;;;;5090862;28;20096;-69
2022/04/10 04:48:38;;;;;;;3.55;1.55;;;3.30;99.90;;;;;;5094497;28;20051;-70
2022/04/10 04:51:04;;;;;;;7.35;1.63;;;3.40;99.90;;;;;;5093772;28;20044;-69
2022/04/10 04:53:29;;;;;;;6.47;1.75;;;3.40;99.90;;;;;;5095630;28;20035;-69
2022/04/10 04:55:55;;;;;;;4.82;1.40;;;3.40;99.90;;;;;;5095211;28;20048;-69
2022/04/10 04:58:20;;;;;;;5.22;1.85;;;3.40;99.90;;;;;;5094302;28;20378;-70
2022/04/10 05:00:47;;;;;;;6.15;1.40;;;3.40;99.90;;;;;;5093660;28;20074;-69
2022/04/10 05:03:15;;;;;;;4.70;1.20;;;3.40;99.90;;;;;;5093873;28;20047;-69
2022/04/10 05:05:40;;;;;;;5.78;1.55;;;3.30;99.90;;;;;;5095080;28;20055;-70
2022/04/10 05:08:06;;;;;;;5.60;1.42;;;3.30;99.90;;;;;;5093850;28;20493;-69
2022/04/10 05:10:32;;;;;;;8.82;1.80;;;3.30;99.90;;;;;;5094886;28;20093;-70
2022/04/10 05:12:57;;;;;;;4.68;1.55;;;3.30;99.90;;;;;;5095095;28;20656;-69
2022/04/10 05:15:23;;;;;;;10.07;1.50;;;3.30;99.90;;;;;;5093728;28;20040;-69
2022/04/10 05:17:48;;;;;;;4.85;1.80;;;3.30;99.90;;;;;;5093895;28;20131;-69
2022/04/10 05:20:14;;;;;;;9.63;3.65;;;3.40;99.90;;;;;;5094449;28;20043;-70
2022/04/10 05:22:39;;;;;;;5.13;1.88;;;3.50;99.90;;;;;;5094928;28;20039;-70
2022/04/10 05:25:05;;;;;;;4.28;1.35;;;3.60;99.90;;;;;;5093396;28;20501;-70
2022/04/10 05:27:31;;;;;;;5.93;1.50;;;3.60;99.90;;;;;;5094929;28;20044;-69
2022/04/10 05:29:56;;;;;;;6.97;1.50;;;3.80;99.90;;;;;;5094470;28;20036;-70
2022/04/10 05:32:22;;;;;;;9.48;1.75;;;3.90;99.90;;;;;;5093397;28;20040;-70
2022/04/10 05:34:47;;;;;;;8.43;1.80;;;4.00;99.90;;;;;;5094549;28;20040;-70
2022/04/10 05:37:13;;;;;;;7.60;1.60;;;4.10;99.90;;;;;;5093282;28;20040;-70
2022/04/10 05:39:39;;;;;;;5.65;1.27;;;4.30;99.90;;;;;;5094708;28;20501;-69
2022/04/10 05:42:07;;;;;;;4.85;1.90;;;4.50;99.90;;;;;;5094134;28;20626;-70
2022/04/10 05:44:33;;;;;;;8.50;1.73;;;4.60;99.90;;;;;;5076420;28;20079;-70
2022/04/10 05:46:59;;;;;;;8.50;1.30;;;4.60;99.90;;;;;;5094418;28;20039;-70
2022/04/10 05:49:24;;;;;;;4.80;1.27;;;4.60;99.90;;;;;;5094249;28;20032;-70
2022/04/10 05:51:51;;;;;;;5.32;1.27;;;4.50;99.90;;;;;;5093799;28;20032;-70
2022/04/10 05:54:16;;;;;;;7.25;1.70;;;4.30;99.90;;;;;;5094298;28;20079;-70
2022/04/10 05:56:42;;;;;;;6.07;1.65;;;4.20;99.90;;;;;;5092888;28;20080;-70
2022/04/10 05:59:08;;;;;;;5.45;1.73;;;4.20;99.90;;;;;;5093834;28;20036;-70
2022/04/10 06:01:33;;;;;;;5.28;1.77;;;4.20;99.90;;;;;;5092618;28;20036;-69
2022/04/10 06:03:58;;;;;;;9.77;1.88;;;4.10;99.90;;;;;;5093751;28;20052;-70
2022/04/10 06:06:24;;;;;;;7.43;1.33;;;4.10;99.90;;;;;;5093992;28;20040;-70
2022/04/10 06:08:50;;;;;;;7.32;2.17;;;4.20;99.90;;;;;;5094096;28;20040;-70
2022/04/10 06:11:15;;;;;;;11.00;1.92;;;4.20;99.90;;;;;;5093573;28;20040;-70
2022/04/10 06:13:41;;;;;;;8.80;1.98;;;4.20;99.90;;;;;;5092560;28;20115;-69
2022/04/10 06:16:06;;;;;;;3.97;1.30;;;4.10;99.90;;;;;;5093680;28;20123;-70
2022/04/10 06:18:32;;;;;;;10.77;2.05;;;4.10;99.90;;;;;;5093602;28;20116;-70
2022/04/10 06:20:57;;;;;;;8.02;1.90;;;4.10;99.90;;;;;;5092051;28;20032;-70
2022/04/10 06:23:23;;;;;;;8.52;1.88;;;4.10;99.90;;;;;;5093824;28;20036;-70
2022/04/10 06:25:49;;;;;;;8.15;1.58;;;4.20;99.90;;;;;;5093659;28;20106;-70
2022/04/10 06:28:15;;;;;;;8.30;1.52;;;4.20;99.90;;;;;;5092293;28;20047;-70
2022/04/10 06:30:40;;;;;;;7.78;2.38;;;4.20;99.90;;;;;;5091911;28;20119;-70
2022/04/10 06:33:06;;;;;;;7.88;1.85;;;4.20;99.90;;;;;;5093437;28;20043;-69
2022/04/10 06:35:31;;;;;;;8.07;2.17;;;4.20;99.90;;;;;;5093439;28;20504;-69
2022/04/10 06:37:57;;;;;;;10.07;2.42;;;4.20;99.90;;;;;;5093660;28;20062;-70
2022/04/10 06:40:22;;;;;;;7.28;3.03;;;4.20;99.90;;;;;;5093015;28;20127;-70
2022/04/10 06:42:48;;;;;;;7.50;2.15;;;4.20;99.90;;;;;;5092079;28;20040;-69
2022/04/10 06:45:13;;;;;;;5.32;1.90;;;4.20;99.90;;;;;;5091880;28;20093;-69
2022/04/10 06:47:39;;;;;;;9.15;2.25;;;4.20;99.90;;;;;;5093286;28;20040;-69
2022/04/10 06:50:05;;;;;;;9.95;2.72;;;4.20;99.90;;;;;;5091477;28;20039;-70
2022/04/10 06:52:30;;;;;;;11.68;2.20;;;4.50;99.90;;;;;;5091844;28;20047;-70
2022/04/10 06:54:56;;;;;;;10.05;2.25;;;4.90;99.90;;;;;;5093197;28;20056;-70
2022/04/10 06:57:21;;;;;;;8.35;2.50;;;5.20;99.90;;;;;;5093168;28;20401;-69
2022/04/10 06:59:47;;;;;;;12.63;2.40;;;5.60;99.90;;;;;;5093045;28;20382;-69
2022/04/10 07:02:13;;;;;;;12.80;1.92;;;5.80;99.90;;;;;;5092551;28;20040;-70
2022/04/10 07:04:39;;;;;;;10.55;2.28;;;6.00;99.90;;;;;;5091445;28;20182;-70
2022/04/10 07:07:04;;;;;;;9.50;3.65;;;6.30;99.90;;;;;;5091837;28;20068;-70
2022/04/10 07:09:30;;;;;;;9.52;1.67;;;6.40;99.90;;;;;;5091930;28;20047;-70
2022/04/10 07:11:56;;;;;;;6.82;2.33;;;6.40;99.90;;;;;;5090996;28;20040;-69
2022/04/10 07:14:21;;;;;;;4.18;1.67;;;6.50;99.90;;;;;;5091389;28;20044;-69
2022/04/10 07:16:47;;;;;;;8.38;2.20;;;6.70;99.90;;;;;;5091261;28;20089;-70
2022/04/10 07:19:12;;;;;;;12.15;2.10;;;6.90;99.90;;;;;;5089459;28;20471;-68
2022/04/10 07:24:22;;;;;;;6.35;1.70;;;7.20;99.90;;;;;;5080948;28;20485;-69
2022/04/10 07:26:49;;;;;;;5.20;2.03;;;7.60;99.90;;;;;;5078658;28;20105;-69
2022/04/10 07:29:14;;;;;;;5.30;1.90;;;7.40;99.90;;;;;;5082812;28;20036;-69
2022/04/10 07:31:40;;;;;;;6.00;1.73;;;7.30;99.90;;;;;;5091522;28;20177;-69
2022/04/10 07:34:06;;;;;;;4.45;1.35;;;7.00;99.90;;;;;;5090913;28;20088;-69
2022/04/10 07:36:32;;;;;;;5.88;1.92;;;6.80;99.90;;;;;;5074174;28;20115;-69
2022/04/10 07:38:58;;;;;;;5.80;1.90;;;7.10;99.90;;;;;;5076250;28;20121;-69
2022/04/10 07:41:24;;;;;;;7.00;1.77;;;7.20;99.90;;;;;;5071771;28;20086;-69
2022/04/10 07:43:50;;;;;;;9.40;1.95;;;7.40;99.90;;;;;;5070945;28;20449;-70
2022/04/10 07:49:00;;;;;;;12.15;2.20;;;7.40;99.90;;;;;;5089033;28;20048;-69
2022/04/10 07:51:26;;;;;;;9.60;2.20;;;7.70;99.90;;;;;;5090760;28;20383;-69
2022/04/10 07:53:54;;;;;;;9.23;2.38;;;8.00;99.90;;;;;;5091284;28;20059;-69
2022/04/10 07:56:20;;;;;;;7.82;2.30;;;8.20;99.90;;;;;;5071945;28;20108;-70
2022/04/10 07:58:46;;;;;;;5.70;1.95;;;8.50;99.90;;;;;;5088658;28;20036;-69
2022/04/10 08:01:11;;;;;;;10.40;2.90;;;8.70;99.90;;;;;;5079541;28;20409;-69
2022/04/10 08:03:37;;;;;;;10.73;2.00;;;8.70;99.90;;;;;;5083430;28;20486;-71
2022/04/10 08:06:03;;;;;;;13.57;2.97;;;9.00;99.90;;;;;;5091926;28;20036;-69
2022/04/10 08:08:28;;;;;;;8.35;1.70;;;8.80;99.90;;;;;;5096064;28;20097;-69
2022/04/10 08:10:54;;;;;;;6.75;2.15;;;9.20;99.90;;;;;;5093479;28;20032;-69
2022/04/10 08:13:20;;;;;;;8.15;2.25;;;9.40;99.90;;;;;;5091405;28;20040;-68
2022/04/10 08:15:46;;;;;;;11.77;2.95;;;9.50;99.90;;;;;;5091178;28;20111;-68
2022/04/10 08:18:12;;;;;;;5.95;1.60;;;9.50;99.90;;;;;;5091327;28;20144;-69
2022/04/10 08:20:37;;;;;;;4.82;1.75;;;9.70;99.90;;;;;;5074447;28;20044;-69
2022/04/10 08:23:03;;;;;;;9.32;2.10;;;9.60;99.90;;;;;;5101145;28;20055;-69
2022/04/10 08:25:28;;;;;;;8.13;1.77;;;9.40;99.90;;;;;;5100592;28;20520;-70
2022/04/10 08:27:55;;;;;;;6.40;2.38;;;9.40;99.90;;;;;;5100525;28;20039;-69
2022/04/10 08:30:21;;;;;;;8.05;2.22;;;9.20;94.80;;;;;;5097042;28;20077;-69
2022/04/10 08:32:47;;;;;;;7.28;1.80;;;9.10;93.10;;;;;;5100352;28;20111;-69
2022/04/10 08:35:13;;;;;;;7.65;1.60;;;9.20;93.10;;;;;;5097124;28;20456;-68
2022/04/10 08:37:39;;;;;;;11.32;2.10;;;9.30;94.10;;;;;;5095240;28;20451;-68
2022/04/10 08:40:05;;;;;;;13.45;2.28;;;9.30;90.90;;;;;;5094825;28;20164;-69
2022/04/10 08:42:31;;;;;;;7.40;1.77;;;9.30;89.40;;;;;;5094997;28;20089;-69
2022/04/10 08:44:57;;;;;;;5.00;1.83;;;9.00;90.40;;;;;;5095202;28;20489;-68
2022/04/10 08:47:24;;;;;;;6.13;1.63;;;8.80;90.40;;;;;;5095733;28;20058;-68
2022/04/10 08:49:50;;;;;;;7.85;1.73;;;8.60;91.50;;;;;;5094812;28;20032;-68
2022/04/10 08:52:17;;;;;;;10.57;1.95;;;8.90;92.50;;;;;;5094738;28;20036;-69
2022/04/10 08:54:44;;;;;;;7.00;1.90;;;9.10;91.90;;;;;;5094855;28;20126;-69
2022/04/10 08:57:10;;;;;;;6.63;1.92;;;9.10;91.30;;;;;;5094511;28;20112;-69
2022/04/10 08:59:36;;;;;;;7.88;1.83;;;9.10;92.00;;;;;;5094471;28;20048;-69
2022/04/10 09:02:03;;;;;;;14.80;2.42;;;8.90;91.10;;;;;;5092856;28;20028;-69
2022/04/10 09:04:29;;;;;;;6.45;2.00;;;8.90;90.60;;;;;;5093215;28;20522;-69
2022/04/10 09:07:09;;;;;;;9.30;2.20;;;9.00;91.30;;;;;;5094340;28;20062;-69
2022/04/10 09:09:40;;;;;;;4.60;1.63;;;8.90;92.10;;;;;;5094274;28;20032;-69
2022/04/10 09:12:06;;;;;;;6.72;1.40;;;8.70;92.20;;;;;;5094021;28;20110;-68
2022/04/10 09:14:37;;;;;;;17.17;2.35;;;9.10;91.30;;;;;;5094537;28;20055;-68
2022/04/10 09:17:22;;;;;;;8.65;2.47;;;9.30;89.00;;;;;;5091742;28;20497;-69
2022/04/10 09:19:53;;;;;;;4.32;1.13;;;9.50;87.50;;;;;;5086432;28;20087;-69
2022/04/10 09:22:37;;;;;;;10.60;2.03;;;9.40;83.00;;;;;;5094201;28;20204;-69
2022/04/10 09:25:16;;;;;;;5.75;1.50;;;9.70;83.20;;;;;;5092937;28;20115;-69
2022/04/10 09:27:47;;;;;;;8.35;1.98;;;9.20;82.80;;;;;;5094169;28;20437;-69
2022/04/10 09:30:15;;;;;;;4.55;1.27;;;9.20;83.20;;;;;;5088551;28;20032;-69
2022/04/10 09:32:52;;;;;;;5.72;1.33;;;9.20;81.40;;;;;;5075659;28;20044;-68
2022/04/10 09:35:22;;;;;;;6.57;1.50;;;9.10;76.30;;;;;;5083870;28;20105;-69
2022/04/10 09:37:49;;;;;;;6.10;1.13;;;9.40;80.20;;;;;;5093861;28;20055;-69
2022/04/10 09:40:24;;;;;;;7.70;1.48;;;9.20;79.40;;;;;;5091979;28;20089;-70
2022/04/10 09:43:07;;;;;;;11.63;1.83;;;9.50;78.90;;;;;;5084087;28;20032;-69
2022/04/10 09:45:43;;;;;;;8.13;1.57;;;9.60;80.00;;;;;;5080488;28;20072;-69
2022/04/10 09:48:18;;;;;;;7.45;1.50;;;9.30;79.60;;;;;;5081364;28;20111;-69
2022/04/10 09:50:43;;;;;;;6.72;1.30;;;9.20;76.00;;;;;;5085818;28;20028;-69
2022/04/10 09:53:10;;;;;;;8.02;1.92;;;9.20;75.50;;;;;;5074332;28;20462;-69
2022/04/10 09:55:38;;;;;;;4.82;1.17;;;9.30;76.70;;;;;;5074240;28;20098;-67
2022/04/10 09:58:07;;;;;;;5.07;1.58;;;9.30;77.60;;;;;;5073050;28;20118;-69
2022/04/10 10:00:37;;;;;;;4.90;1.50;;;9.30;78.10;;;;;;5089177;28;20032;-69
2022/04/10 10:03:03;;;;;;;6.82;2.05;;;9.40;80.30;;;;;;5090955;28;20044;-69
2022/04/10 10:05:30;;;;;;;8.23;1.42;;;9.40;78.90;;;;;;5091971;28;20036;-68
2022/04/10 10:07:56;;;;;;;6.78;2.03;;;9.10;75.90;;;;;;5092092;28;20058;-69
2022/04/10 10:10:22;;;;;;;13.60;1.80;;;8.80;77.60;;;;;;5091780;28;20408;-69
2022/04/10 10:12:50;;;;;;;7.25;1.95;;;8.70;83.00;;;;;;5093148;28;20036;-69
2022/04/10 10:15:17;;;;;;;6.68;1.67;;;8.50;91.70;;;;;;5091833;28;20040;-69
2022/04/10 10:17:43;;;;;;;7.47;1.08;;;8.40;93.40;;;;;;5093001;28;20039;-69
2022/04/10 10:20:10;;;;;;;4.93;1.52;;;8.50;95.00;;;;;;5092821;28;20036;-69
2022/04/10 10:22:36;;;;;;;4.82;1.30;;;8.60;94.90;;;;;;5092774;28;20535;-69
2022/04/10 10:25:12;;;;;;;6.60;1.40;;;8.70;92.50;;;;;;5092655;28;20040;-69
2022/04/10 10:28:14;;;;;;;8.55;1.38;;;8.80;91.70;;;;;;5093076;28;20044;-69
2022/04/10 10:31:20;;;;;;;7.18;2.00;;;9.00;91.70;;;;;;5080232;28;20382;-69
2022/04/10 10:33:56;;;;;;;9.80;1.52;;;9.20;90.60;;;;;;5092780;28;20044;-69
2022/04/10 10:36:24;;;;;;;8.77;2.53;;;9.30;90.90;;;;;;5096143;28;20032;-69
2022/04/10 10:38:54;;;;;;;4.95;1.45;;;9.10;91.10;;;;;;5092556;28;20044;-69
2022/04/10 10:41:20;;;;;;;6.68;1.65;;;8.80;87.00;;;;;;5092039;28;20097;-69
2022/04/10 10:43:47;;;;;;;3.20;1.02;;;8.80;86.20;;;;;;5091496;28;20544;-69
2022/04/10 10:46:22;;;;;;;6.05;1.98;;;8.90;85.20;;;;;;5092337;28;20044;-70
2022/04/10 10:48:50;;;;;;;8.27;1.45;;;9.10;85.60;;;;;;5092400;28;20036;-70
2022/04/10 10:51:15;;;;;;;6.03;1.80;;;9.30;84.50;;;;;;5091932;28;20043;-69
2022/04/10 10:53:47;;;;;;;7.07;1.67;;;9.30;81.70;;;;;;5092041;28;20051;-70
2022/04/10 10:56:20;;;;;;;5.25;1.75;;;9.40;81.10;;;;;;5092412;28;20036;-69
2022/04/10 10:58:50;;;;;;;7.90;1.77;;;9.50;84.00;;;;;;5091967;28;20501;-70
2022/04/10 11:01:20;;;;;;;7.43;1.35;;;9.60;85.00;;;;;;5091687;28;20046;-71
2022/04/10 11:04:09;;;;;;;4.45;1.20;;;9.80;78.80;;;;;;5091914;28;20040;-70
2022/04/10 11:06:45;;;;;;;6.00;1.20;;;9.80;80.10;;;;;;5081174;28;20510;-69
2022/04/10 11:09:28;;;;;;;7.75;1.73;;;9.80;79.30;;;;;;5092009;28;20111;-69
2022/04/10 11:11:57;;;;;;;6.05;1.35;;;9.80;78.60;;;;;;5091707;28;20119;-69
2022/04/10 11:14:39;;;;;;;7.57;1.60;;;9.90;78.10;;;;;;5091807;28;20447;-69
2022/04/10 11:17:27;;;;;;;6.32;1.40;;;9.90;77.50;;;;;;5092219;28;20078;-69
2022/04/10 11:20:14;;;;;;;5.63;1.10;;;10.00;74.60;;;;;;5091725;28;20040;-69
2022/04/10 11:22:49;;;;;;;9.30;1.52;;;10.00;76.00;;;;;;5091409;28;20052;-69
2022/04/10 11:25:20;;;;;;;5.57;1.13;;;10.00;76.20;;;;;;5090213;28;20584;-69
2022/04/10 11:27:55;;;;;;;3.88;1.42;;;9.90;73.90;;;;;;5090008;28;20036;-69
2022/04/10 11:30:23;;;;;;;5.20;1.83;;;10.10;75.60;;;;;;5080726;28;20036;-70
2022/04/10 11:32:55;;;;;;;5.00;1.38;;;10.10;76.70;;;;;;5082089;28;20107;-69
2022/04/10 11:35:26;;;;;;;6.82;1.30;;;9.90;75.10;;;;;;5087774;28;20588;-69
2022/04/10 11:37:54;;;;;;;4.68;1.25;;;9.70;69.70;;;;;;5072291;28;20397;-69
2022/04/10 11:40:23;;;;;;;4.45;0.93;;;9.70;69.00;;;;;;5071672;28;20044;-69
2022/04/10 11:42:49;;;;;;;4.53;1.08;;;9.60;68.00;;;;;;5072104;28;20044;-69
2022/04/10 11:45:14;;;;;;;7.03;1.95;;;9.70;68.70;;;;;;5070640;28;20044;-70
2022/04/10 11:47:44;;;;;;;7.30;1.27;;;9.70;70.90;;;;;;5072009;28;20032;-70
2022/04/10 11:50:13;;;;;;;5.80;1.08;;;9.80;72.80;;;;;;5071460;28;20045;-69
2022/04/10 11:52:40;;;;;;;4.35;1.30;;;9.80;72.90;;;;;;5072273;28;20045;-70
2022/04/10 11:55:07;;;;;;;7.05;1.25;;;9.70;68.30;;;;;;5071548;28;20050;-70
2022/04/10 11:57:35;;;;;;;5.88;1.75;;;9.70;68.70;;;;;;5071835;28;20116;-70
2022/04/10 12:00:04;;;;;;;2.85;1.17;;;9.80;70.70;;;;;;5084634;28;20066;-69
2022/04/10 12:02:30;;;;;;;9.77;1.52;;;9.90;70.10;;;;;;5091249;28;20497;-70
2022/04/10 12:05:00;;;;;;;7.93;2.00;;;10.20;73.60;;;;;;5091267;28;20036;-70
2022/04/10 12:07:26;;;;;;;5.30;1.40;;;10.30;73.20;;;;;;5091449;28;20413;-70
2022/04/10 12:09:52;;;;;;;5.72;1.20;;;10.30;70.10;;;;;;5091217;28;20052;-70
2022/04/10 12:12:20;;;;;;;7.80;1.60;;;10.20;68.70;;;;;;5090922;28;20036;-70
2022/04/10 12:14:47;;;;;;;9.13;1.30;;;10.20;68.80;;;;;;5089879;28;20521;-70
2022/04/10 12:17:17;;;;;;;3.33;1.75;;;10.30;70.90;;;;;;5078705;28;20041;-69
2022/04/10 12:19:43;;;;;;;6.78;1.85;;;10.30;70.30;;;;;;5071998;28;20076;-70
2022/04/10 12:22:12;;;;;;;7.95;1.02;;;10.10;70.60;;;;;;5071488;28;20071;-69
2022/04/10 12:24:38;;;;;;;6.35;1.10;;;10.20;74.40;;;;;;5071673;28;20068;-70
2022/04/10 12:27:09;;;;;;;6.13;1.50;;;10.30;71.40;;;;;;5076450;28;20028;-66
2022/04/10 12:29:35;;;;;;;7.60;1.88;;;10.20;67.90;;;;;;5074875;28;20124;-69
2022/04/10 12:32:02;;;;;;;8.75;1.33;;;10.00;69.00;;;;;;5071272;28;20090;-69
2022/04/10 12:34:32;;;;;;;5.90;1.58;;;9.90;71.00;;;;;;5071417;28;20045;-69
2022/04/10 12:37:09;;;;;;;3.95;1.45;;;9.70;71.90;;;;;;5071566;28;20051;-69
2022/04/10 12:39:34;;;;;;;4.07;1.40;;;9.70;74.00;;;;;;5071449;28;20119;-69
2022/04/10 12:42:11;;;;;;;8.45;1.85;;;9.70;71.60;;;;;;5071007;28;20119;-69
2022/04/10 12:44:38;;;;;;;6.30;1.10;;;9.80;72.80;;;;;;5071308;28;20033;-69
2022/04/10 12:47:08;;;;;;;5.57;1.45;;;10.00;72.30;;;;;;5071451;28;20048;-69
2022/04/10 12:49:35;;;;;;;8.70;1.60;;;10.10;69.70;;;;;;5071365;28;20036;-69
2022/04/10 12:52:03;;;;;;;4.47;1.27;;;10.20;69.60;;;;;;5070964;28;20041;-69
2022/04/10 12:54:39;;;;;;;4.03;1.38;;;10.40;70.60;;;;;;5070925;28;20048;-69
2022/04/10 12:57:07;;;;;;;2.95;1.00;;;10.30;67.90;;;;;;5070295;28;20410;-70
2022/04/10 12:59:41;;;;;;;4.93;1.58;;;10.60;69.20;;;;;;5075110;28;20401;-70